Myrtle, Missouri
Current Conditions -  °F | °C
As of 2:35 AM on Tuesday 27 Jan 2015 (Local Time) from KARG Reporting Station
Clear Clear  
Wind Chill:   Ceiling: Unl
Heat Index:   Visibility: 10mi
Dew Point:   Wind: 10mph
Humidity: 70%   Direction: 280°W
Pressure: 29.98"   Gusts: NA
Location:  36.51°N, 91.27°W
Report Text: KARG 270835Z AUTO 28009KT 10SM CLR 06/01 A2998 RMK AO1
Loading
Personal Weather Stations






























Interactive Weather Map New forecast layout! Learn more

10-Day Weather Forecast

Advertisements
Track Severe Weather on mobile